createdAt,value
2022-09-23T00:00:23.156Z,99793.53
2022-09-23T00:01:23.342Z,99791.16
2022-09-23T00:02:23.112Z,99793.53
2022-09-23T00:03:23.095Z,99794.3
2022-09-23T00:04:23.085Z,99794.8
2022-09-23T00:05:23.154Z,99795.23
2022-09-23T00:06:23.675Z,99791.78
2022-09-23T00:07:23.121Z,99794.41
2022-09-23T00:08:23.128Z,99791.73
2022-09-23T00:09:23.153Z,99795.47
2022-09-23T00:10:24.081Z,99794.14
2022-09-23T00:11:24.548Z,99793.43
2022-09-23T00:12:23.189Z,99792.47
2022-09-23T00:13:25.937Z,99790.72
2022-09-23T00:14:23.225Z,99789.2
2022-09-23T00:15:23.611Z,99789.86
2022-09-23T00:16:27.100Z,99790.69
2022-09-23T00:17:23.357Z,99787.27
2022-09-23T00:18:23.386Z,99784.09
2022-09-23T00:19:23.418Z,99788.62
2022-09-23T00:20:23.406Z,99787.38
2022-09-23T00:21:23.702Z,99787.01
2022-09-23T00:22:23.523Z,99788.76
2022-09-23T00:23:23.482Z,99785.93
2022-09-23T00:24:23.609Z,99785.77
2022-09-23T00:25:23.476Z,99787
2022-09-23T00:26:24.149Z,99788.71
2022-09-23T00:27:23.560Z,99787.32
2022-09-23T00:28:23.744Z,99788.27
2022-09-23T00:29:23.533Z,99785.06
2022-09-23T00:30:23.678Z,99784.01
2022-09-23T00:31:24.457Z,99783.58
2022-09-23T00:32:23.600Z,99783.66
2022-09-23T00:33:23.699Z,99784.29
2022-09-23T00:34:23.590Z,99787.59
2022-09-23T00:35:23.614Z,99785.27
2022-09-23T00:36:23.993Z,99784.97
2022-09-23T00:37:23.697Z,99783.59
2022-09-23T00:38:23.628Z,99783.62
2022-09-23T00:39:24.014Z,99783.99
2022-09-23T00:40:23.738Z,99781.16
2022-09-23T00:41:24.459Z,99784.7
2022-09-23T00:42:24.013Z,99783.74
2022-09-23T00:45:26.302Z,99781.05
2022-09-23T00:46:29.014Z,99785.75
2022-09-23T00:48:29.921Z,99782.73
2022-09-23T00:49:30.342Z,99781.61
2022-09-23T00:52:33.224Z,99776.42
2022-09-23T00:53:32.637Z,99774.73
2022-09-23T00:54:32.671Z,99779.84
2022-09-23T00:56:34.289Z,99778.77
2022-09-23T00:57:33.366Z,99776.17
2022-09-23T00:58:34.292Z,99780.97
2022-09-23T00:59:33.411Z,99778.44
2022-09-23T01:00:33.205Z,99773.73
2022-09-23T01:01:33.299Z,99771.93
2022-09-23T01:02:33.273Z,99770.72
2022-09-23T01:03:33.399Z,99768.98
2022-09-23T01:04:34.021Z,99768.59
2022-09-23T01:05:33.850Z,99766.89
2022-09-23T01:06:33.266Z,99767.09
2022-09-23T01:07:33.636Z,99764.99
2022-09-23T01:08:33.288Z,99763.17
2022-09-23T01:09:33.650Z,99764.83
2022-09-23T01:10:40.062Z,99762.96
2022-09-23T01:15:56.752Z,99758.81
2022-09-23T01:21:12.287Z,99761.36
2022-09-23T01:22:09.492Z,99762.28
2022-09-23T01:31:27.857Z,99764.33
2022-09-23T01:34:37.192Z,99760.3
2022-09-23T01:38:44.695Z,99760.97
2022-09-23T01:43:53.883Z,99758.33
2022-09-23T01:44:52.940Z,99758.89
2022-09-23T01:45:53.941Z,99762.09
2022-09-23T01:49:57.669Z,99764.41
2022-09-23T01:52:07.981Z,99762.33
2022-09-23T01:53:02.352Z,99761.41
2022-09-23T01:55:15.108Z,99762.92
2022-09-23T01:56:08.994Z,99765.4
2022-09-23T01:57:18.184Z,99765.3
2022-09-23T01:58:13.887Z,99764.84
2022-09-23T01:59:17.307Z,99762.2
2022-09-23T02:00:16.102Z,99764.54
2022-09-23T02:01:17.136Z,99763.22
2022-09-23T02:03:21.602Z,99773.6
2022-09-23T02:04:22.546Z,99770.5
2022-09-23T02:07:24.562Z,99772.3
2022-09-23T02:08:24.333Z,99768.45
2022-09-23T02:09:25.651Z,99767.2
2022-09-23T02:10:25.561Z,99770.92
2022-09-23T02:11:22.108Z,99772.94
2022-09-23T02:12:23.182Z,99775.77
2022-09-23T02:13:23.136Z,99775.34
2022-09-23T02:14:24.814Z,99777.45
2022-09-23T02:17:26.949Z,99772.73
2022-09-23T02:18:26.093Z,99779.01
2022-09-23T02:20:29.732Z,99778.78
2022-09-23T02:21:29.376Z,99778.65
2022-09-23T02:23:29.864Z,99781.36
2022-09-23T02:24:29.071Z,99776.87
2022-09-23T02:25:31.351Z,99778.72
2022-09-23T02:26:33.579Z,99777.64
2022-09-23T02:27:35.961Z,99778.79
2022-09-23T02:28:38.231Z,99777.36
2022-09-23T02:34:46.421Z,99777.56
2022-09-23T02:36:55.939Z,99773.47
2022-09-23T02:38:55.037Z,99775.97
2022-09-23T02:40:55.532Z,99771.98
2022-09-23T02:42:04.063Z,99772.67
2022-09-23T02:43:03.657Z,99765.83
2022-09-23T02:44:08.655Z,99767.52
2022-09-23T02:45:00.477Z,99768.08
2022-09-23T02:46:00.770Z,99767.8
2022-09-23T02:47:00.615Z,99763.42
2022-09-23T02:48:13.816Z,99766.02
2022-09-23T02:49:12.317Z,99763.49
2022-09-23T02:50:04.250Z,99766.7
2022-09-23T02:51:04.404Z,99765.66
2022-09-23T02:52:05.166Z,99764.19
2022-09-23T02:53:04.281Z,99766.92
2022-09-23T02:54:05.574Z,99769.59
2022-09-23T02:55:05.072Z,99768.37
2022-09-23T02:56:16.541Z,99769.39
2022-09-23T02:57:08.603Z,99770.05
2022-09-23T02:58:10.016Z,99771.08
2022-09-23T02:59:09.050Z,99771.51
2022-09-23T03:00:08.744Z,99768.48
2022-09-23T03:03:28.115Z,99773.02
2022-09-23T03:05:22.466Z,99767.44
2022-09-23T03:08:32.331Z,99767.48
2022-09-23T03:09:42.057Z,99764.8
2022-09-23T03:11:40.013Z,99763.98
2022-09-23T03:12:41.896Z,99765.56
2022-09-23T03:18:57.039Z,99761.14
2022-09-23T03:20:00.150Z,99763.69
2022-09-23T03:20:58.919Z,99764.14
2022-09-23T03:22:01.951Z,99763.95
2022-09-23T03:23:00.912Z,99759.66
2022-09-23T03:24:00.511Z,99758.7
2022-09-23T03:25:02.118Z,99760.95
2022-09-23T03:25:59.703Z,99755.83
2022-09-23T03:27:00.495Z,99760.61
2022-09-23T03:28:00.230Z,99758.9
2022-09-23T03:29:02.252Z,99758.27
2022-09-23T03:29:58.873Z,99753.92
2022-09-23T03:30:58.884Z,99757.84
2022-09-23T03:31:59.211Z,99753.52
2022-09-23T03:32:59.301Z,99754.31
2022-09-23T03:33:59.826Z,99757.52
2022-09-23T03:35:00.483Z,99755.63
2022-09-23T03:36:02.108Z,99753.56
2022-09-23T03:37:01.865Z,99758.97
2022-09-23T03:39:12.448Z,99757.98
2022-09-23T03:41:08.773Z,99756.82
2022-09-23T03:43:10.626Z,99762.72
2022-09-23T03:44:10.672Z,99759.19
2022-09-23T03:45:13.155Z,99756.02
2022-09-23T03:46:10.512Z,99755.3
2022-09-23T03:47:10.188Z,99756.22
2022-09-23T03:48:10.020Z,99755.92
2022-09-23T03:49:13.743Z,99759.58
2022-09-23T03:50:10.681Z,99758.64
2022-09-23T03:52:15.402Z,99755.8
2022-09-23T03:53:14.862Z,99755.09
2022-09-23T03:54:14.843Z,99752.97
2022-09-23T03:55:15.004Z,99756
2022-09-23T03:56:14.990Z,99759.94
2022-09-23T03:57:15.220Z,99759.59
2022-09-23T03:58:14.970Z,99758.83
2022-09-23T03:59:15.162Z,99756.72
2022-09-23T04:00:15.662Z,99756.77
2022-09-23T04:01:15.057Z,99752.98
2022-09-23T04:02:15.079Z,99753.23
2022-09-23T04:03:15.048Z,99749.71
2022-09-23T04:04:15.033Z,99751.73
2022-09-23T04:05:15.308Z,99748.12
2022-09-23T04:06:15.190Z,99746.92
2022-09-23T04:07:15.131Z,99748.7
2022-09-23T04:08:15.121Z,99748.3
2022-09-23T04:09:15.108Z,99747.58
2022-09-23T04:10:15.207Z,99744.32
2022-09-23T04:11:15.159Z,99745.53
2022-09-23T04:12:16.021Z,99744.87
2022-09-23T04:13:15.360Z,99745.72
2022-09-23T04:14:15.697Z,99744.18
2022-09-23T04:15:16.677Z,99741.84
2022-09-23T04:16:15.255Z,99743.98
2022-09-23T04:17:15.263Z,99740.67
2022-09-23T04:18:15.452Z,99739.95
2022-09-23T04:19:15.843Z,99742.52
2022-09-23T04:20:15.346Z,99737.81
2022-09-23T04:21:15.508Z,99735.83
2022-09-23T04:22:15.418Z,99734.61
2022-09-23T04:23:15.414Z,99735.93
2022-09-23T04:24:16.338Z,99737.02
2022-09-23T04:25:15.370Z,99737.27
2022-09-23T04:26:15.432Z,99738.14
2022-09-23T04:27:15.398Z,99736.83
2022-09-23T04:28:16.048Z,99738.94
2022-09-23T04:29:15.419Z,99737.83
2022-09-23T04:30:15.435Z,99735.16
2022-09-23T04:31:15.594Z,99735.41
2022-09-23T04:32:15.503Z,99733.55
2022-09-23T04:33:16.294Z,99732.2
2022-09-23T04:34:15.722Z,99732.06
2022-09-23T04:35:15.687Z,99734.54
2022-09-23T04:36:15.887Z,99731.01
2022-09-23T04:37:15.540Z,99735.81
2022-09-23T04:38:15.546Z,99737.39
2022-09-23T04:39:16.451Z,99735.06
2022-09-23T04:40:15.677Z,99734.34
2022-09-23T04:41:16.243Z,99733.52
2022-09-23T04:42:15.632Z,99731.68
2022-09-23T04:43:16.088Z,99733.39
2022-09-23T04:44:15.699Z,99736.75
2022-09-23T04:45:15.923Z,99736.89
2022-09-23T04:46:16.408Z,99736.33
2022-09-23T04:47:15.713Z,99735.87
2022-09-23T04:48:15.926Z,99740.98
2022-09-23T04:49:16.914Z,99740.16
2022-09-23T04:50:16.889Z,99739.44
2022-09-23T04:51:18.880Z,99745.88
2022-09-23T04:52:16.896Z,99741.66
2022-09-23T04:53:16.980Z,99741.12
2022-09-23T04:54:16.913Z,99743.25
2022-09-23T04:55:17.245Z,99742.26
2022-09-23T04:56:18.737Z,99739.2
2022-09-23T04:57:16.918Z,99739.62
2022-09-23T04:58:16.990Z,99737.94
2022-09-23T04:59:16.995Z,99740.97
2022-09-23T05:00:17.313Z,99739.22
2022-09-23T05:01:18.751Z,99740.17
2022-09-23T05:02:18.973Z,99734.9
2022-09-23T05:03:17.311Z,99739.75
2022-09-23T05:04:17.434Z,99736.16
2022-09-23T05:05:17.897Z,99739.05
2022-09-23T05:06:18.930Z,99737.66
2022-09-23T05:07:18.340Z,99740.93
2022-09-23T05:08:18.530Z,99740.55
2022-09-23T05:09:18.674Z,99742.62
2022-09-23T05:10:19.175Z,99740.8
2022-09-23T05:11:21.072Z,99735.05
2022-09-23T05:12:20.318Z,99738.77
2022-09-23T05:13:21.317Z,99737.28
2022-09-23T05:14:19.740Z,99736.47
2022-09-23T05:15:18.313Z,99736.66
2022-09-23T05:16:20.712Z,99736.11
2022-09-23T05:17:18.741Z,99730.83
2022-09-23T05:18:21.277Z,99732.44
2022-09-23T05:19:19.950Z,99727.86
2022-09-23T05:20:19.944Z,99730.69
2022-09-23T05:21:20.668Z,99733.72
2022-09-23T05:22:19.564Z,99736.71
2022-09-23T05:23:18.135Z,99745.42
2022-09-23T05:24:18.243Z,99744
2022-09-23T05:25:18.172Z,99745.48
2022-09-23T05:26:18.136Z,99741.65
2022-09-23T05:27:18.403Z,99738.81
2022-09-23T05:28:18.195Z,99735.5
2022-09-23T05:29:18.254Z,99735.31
2022-09-23T05:30:18.468Z,99732.94
2022-09-23T05:31:20.698Z,99730.88
2022-09-23T05:32:18.353Z,99734.43
2022-09-23T05:33:18.302Z,99734.32
2022-09-23T05:34:18.477Z,99732.61
2022-09-23T05:35:18.324Z,99735.28
2022-09-23T05:36:19.115Z,99733.31
2022-09-23T05:37:18.371Z,99727.9
2022-09-23T05:38:18.342Z,99732.69
2022-09-23T05:39:18.878Z,99736.51
2022-09-23T05:40:18.541Z,99740.15
2022-09-23T05:41:19.556Z,99741.65
2022-09-23T05:42:18.440Z,99744
2022-09-23T05:43:18.674Z,99744.56
2022-09-23T05:44:18.457Z,99741.34
2022-09-23T05:45:18.563Z,99746.64
2022-09-23T05:46:22.822Z,99746.84
2022-09-23T05:47:19.610Z,99740.11
2022-09-23T05:48:19.619Z,99739.45
2022-09-23T05:49:19.645Z,99735.45
2022-09-23T05:50:19.762Z,99741.25
2022-09-23T05:51:21.523Z,99741.23
2022-09-23T05:52:19.755Z,99739.49
2022-09-23T05:53:19.724Z,99738.45
2022-09-23T05:54:19.704Z,99743
2022-09-23T05:55:19.768Z,99741.64
2022-09-23T05:56:21.372Z,99742.12
2022-09-23T05:57:19.778Z,99739.39
2022-09-23T05:58:20.674Z,99739.23
2022-09-23T05:59:19.795Z,99739.82
2022-09-23T06:00:20.155Z,99739.75
2022-09-23T06:01:21.131Z,99743.79
2022-09-23T06:02:20.041Z,99739.73
2022-09-23T06:03:20.396Z,99744.63
2022-09-23T06:04:19.862Z,99742.09
2022-09-23T06:05:20.188Z,99742.8
2022-09-23T06:06:21.095Z,99743.55
2022-09-23T06:07:19.980Z,99747.03
2022-09-23T06:08:20.013Z,99745.24
2022-09-23T06:09:19.991Z,99747.95
2022-09-23T06:10:20.058Z,99748.05
2022-09-23T06:11:20.062Z,99749.22
2022-09-23T06:12:20.099Z,99748.61
2022-09-23T06:13:20.099Z,99749.66
2022-09-23T06:14:20.098Z,99750.8
2022-09-23T06:15:20.218Z,99752.83
2022-09-23T06:16:20.224Z,99754.71
2022-09-23T06:17:20.311Z,99756.38
2022-09-23T06:18:20.270Z,99753
2022-09-23T06:19:20.605Z,99754.2
2022-09-23T06:20:20.434Z,99756.3
2022-09-23T06:21:20.432Z,99758.77
2022-09-23T06:22:20.215Z,99755.16
2022-09-23T06:23:23.636Z,99760.09
2022-09-23T06:24:26.008Z,99758.16
2022-09-23T06:25:25.518Z,99758.42
2022-09-23T06:26:25.335Z,99755.52
2022-09-23T06:27:25.734Z,99754.37
2022-09-23T06:28:28.870Z,99756.14
2022-09-23T06:29:25.567Z,99757.17
2022-09-23T06:30:26.232Z,99758.62
2022-09-23T06:31:25.661Z,99757.22
2022-09-23T06:32:25.771Z,99756.26
2022-09-23T06:33:35.726Z,99757.48
2022-09-23T06:34:28.914Z,99760.48
2022-09-23T06:35:28.920Z,99754.09
2022-09-23T06:36:40.149Z,99755.83
2022-09-23T06:37:31.974Z,99752.93
2022-09-23T06:38:30.866Z,99755.64
2022-09-23T06:39:30.507Z,99752.2
2022-09-23T06:40:30.948Z,99756.25
2022-09-23T06:41:30.555Z,99757.27
2022-09-23T06:42:30.598Z,99756.93
2022-09-23T06:43:30.615Z,99756.05
2022-09-23T06:44:30.612Z,99757.86
2022-09-23T06:45:30.680Z,99752.48
2022-09-23T06:46:30.716Z,99758.81
2022-09-23T06:47:31.001Z,99755.58
2022-09-23T06:48:31.274Z,99755.16
2022-09-23T06:49:30.741Z,99759.25
2022-09-23T06:50:30.785Z,99759.62
2022-09-23T06:51:30.717Z,99762.28
2022-09-23T06:52:30.793Z,99763.34
2022-09-23T06:53:31.252Z,99765.66
2022-09-23T06:54:30.838Z,99764.38
2022-09-23T06:55:31.072Z,99767.07
2022-09-23T06:56:34.892Z,99760.45
2022-09-23T06:57:34.708Z,99762.59
2022-09-23T06:58:36.037Z,99764.05
2022-09-23T06:59:34.776Z,99761.12
2022-09-23T07:00:35.248Z,99761.39
2022-09-23T07:01:34.848Z,99762.84
2022-09-23T07:02:34.891Z,99763.25
2022-09-23T07:03:35.187Z,99764.44
2022-09-23T07:04:34.726Z,99763.78
2022-09-23T07:05:35.099Z,99766.1
2022-09-23T07:06:34.960Z,99761.7
2022-09-23T07:07:35.148Z,99762.6
2022-09-23T07:08:35.228Z,99764.61
2022-09-23T07:09:34.781Z,99765.62
2022-09-23T07:10:35.799Z,99766.06
2022-09-23T07:11:34.847Z,99766.83
2022-09-23T07:12:35.079Z,99770.02
2022-09-23T07:13:34.944Z,99765.77
2022-09-23T07:14:34.847Z,99765.36
2022-09-23T07:15:34.981Z,99765.45
2022-09-23T07:16:34.933Z,99762
2022-09-23T07:17:35.137Z,99760.36
2022-09-23T07:18:36.981Z,99764.33
2022-09-23T07:19:34.965Z,99761.37
2022-09-23T07:20:34.976Z,99763.44
2022-09-23T07:21:35.096Z,99763.77
2022-09-23T07:22:35.571Z,99762.34
2022-09-23T07:23:35.253Z,99762.38
2022-09-23T07:24:35.269Z,99762.36
2022-09-23T07:25:35.075Z,99761.55
2022-09-23T07:26:35.430Z,99760.99
2022-09-23T07:27:35.113Z,99761.38
2022-09-23T07:28:35.715Z,99761.09
2022-09-23T07:29:47.141Z,99762.02
2022-09-23T07:30:38.751Z,99764.84
2022-09-23T07:31:39.785Z,99764.62
2022-09-23T07:32:46.901Z,99763.5
2022-09-23T07:33:40.930Z,99762.88
2022-09-23T07:34:40.507Z,99761.17
2022-09-23T07:35:41.707Z,99761.14
2022-09-23T07:36:41.043Z,99761.12
2022-09-23T07:37:40.402Z,99760.24
2022-09-23T07:38:45.216Z,99762.23
2022-09-23T07:39:42.821Z,99763.1
2022-09-23T07:40:42.570Z,99761.36
2022-09-23T07:41:42.570Z,99760.67
2022-09-23T07:42:42.424Z,99760.83
2022-09-23T07:43:42.657Z,99757.34
2022-09-23T07:44:42.437Z,99759.43
2022-09-23T07:45:42.459Z,99763.94
2022-09-23T07:46:42.735Z,99760.62
2022-09-23T07:47:42.699Z,99761.03
2022-09-23T07:48:43.126Z,99761.7
2022-09-23T07:49:42.540Z,99759.58
2022-09-23T07:50:42.569Z,99757.29
2022-09-23T07:51:43.158Z,99759.18
2022-09-23T07:52:42.627Z,99760.3
2022-09-23T07:53:42.620Z,99761.75
2022-09-23T07:54:42.617Z,99755
2022-09-23T07:55:42.616Z,99753.8
2022-09-23T07:56:43.114Z,99756.45
2022-09-23T07:57:42.879Z,99753.69
2022-09-23T07:58:42.684Z,99756.7
2022-09-23T07:59:42.686Z,99754.11
2022-09-23T08:00:43.705Z,99756.09
2022-09-23T08:01:44.008Z,99754.72
2022-09-23T08:02:42.811Z,99757.09
2022-09-23T08:03:45.292Z,99757.22
2022-09-23T08:04:42.760Z,99754.7
2022-09-23T08:05:42.928Z,99753.04
2022-09-23T08:06:47.615Z,99753.52
2022-09-23T08:07:44.412Z,99756.44
2022-09-23T08:08:51.157Z,99756.55
2022-09-23T08:09:44.994Z,99754.48
2022-09-23T08:10:44.946Z,99753.16
2022-09-23T08:11:45.011Z,99758.1
2022-09-23T08:12:45.028Z,99756.86
2022-09-23T08:13:45.981Z,99757.05
2022-09-23T08:14:45.035Z,99749.8
2022-09-23T08:15:49.982Z,99752.38
2022-09-23T08:16:50.486Z,99754.39
2022-09-23T08:17:50.063Z,99751.44
2022-09-23T08:18:50.116Z,99753.66
2022-09-23T08:19:50.072Z,99752.64
2022-09-23T08:20:50.506Z,99751.62
2022-09-23T08:21:50.310Z,99752.73
2022-09-23T08:22:50.947Z,99751.98
2022-09-23T08:23:50.119Z,99749.38
2022-09-23T08:24:51.405Z,99745.26
2022-09-23T08:25:58.918Z,99749.39
2022-09-23T08:26:51.369Z,99749.94
2022-09-23T08:27:51.270Z,99747.72
2022-09-23T08:28:51.870Z,99747.69
2022-09-23T08:29:51.280Z,99746.04
2022-09-23T08:30:51.736Z,99746.34
2022-09-23T08:31:51.814Z,99747.41
2022-09-23T08:32:51.372Z,99748.55
2022-09-23T08:33:55.071Z,99747.55
2022-09-23T08:34:51.837Z,99743.73
2022-09-23T08:35:52.486Z,99748.36
2022-09-23T08:36:51.806Z,99743.58
2022-09-23T08:37:51.861Z,99749.13
2022-09-23T08:38:52.066Z,99748.74
2022-09-23T08:39:51.895Z,99746.8
2022-09-23T08:40:55.574Z,99742.91
2022-09-23T08:42:06.046Z,99744.52
2022-09-23T08:42:52.845Z,99745.14
2022-09-23T08:43:57.730Z,99742.86
2022-09-23T08:44:57.312Z,99741.95
2022-09-23T08:45:55.525Z,99738.89
2022-09-23T08:47:01.276Z,99738.81
2022-09-23T08:48:03.679Z,99735.06
2022-09-23T08:49:01.054Z,99740.48
2022-09-23T08:50:04.442Z,99734.97
2022-09-23T08:51:06.583Z,99734.48
2022-09-23T08:52:08.731Z,99736.14
2022-09-23T08:53:08.460Z,99736.22
2022-09-23T08:54:05.580Z,99737.59
2022-09-23T08:55:06.051Z,99738.85
2022-09-23T08:56:09.286Z,99730.89
2022-09-23T08:57:07.334Z,99734.97
2022-09-23T09:00:20.637Z,99734.04
2022-09-23T09:01:16.623Z,99732.47
2022-09-23T09:02:20.934Z,99734.25
2022-09-23T09:03:24.925Z,99734.45
2022-09-23T09:04:27.045Z,99726.73
2022-09-23T09:05:25.724Z,99730.11
2022-09-23T09:08:32.704Z,99729.68
2022-09-23T09:09:35.884Z,99729.59
2022-09-23T09:10:35.226Z,99730.45
2022-09-23T09:11:40.200Z,99727.82
2022-09-23T09:12:42.188Z,99729.62
2022-09-23T09:13:44.597Z,99728.2
2022-09-23T09:14:50.185Z,99730.12
2022-09-23T09:15:47.578Z,99731.34
2022-09-23T09:18:55.313Z,99721.77
2022-09-23T09:19:53.365Z,99724.66
2022-09-23T09:21:53.472Z,99721.55
2022-09-23T09:22:54.015Z,99724.25
2022-09-23T09:23:56.700Z,99723.84
2022-09-23T09:24:55.651Z,99721.91
2022-09-23T09:25:54.295Z,99719.58
2022-09-23T09:26:53.321Z,99720.15
2022-09-23T09:27:54.429Z,99719.8
2022-09-23T09:29:59.976Z,99723.67
2022-09-23T09:31:00.748Z,99719.62
2022-09-23T09:31:58.913Z,99720.81
2022-09-23T09:33:01.045Z,99723
2022-09-23T09:35:05.276Z,99720.68
2022-09-23T09:38:08.338Z,99720.93
2022-09-23T09:39:12.006Z,99719.84
2022-09-23T09:40:11.428Z,99715.98
2022-09-23T09:41:11.929Z,99716.36
2022-09-23T09:42:15.548Z,99716.62
2022-09-23T09:43:15.947Z,99713.92
2022-09-23T09:51:28.281Z,99708.58
2022-09-23T09:52:28.642Z,99707.33
2022-09-23T09:53:29.220Z,99708.98
2022-09-23T09:54:27.822Z,99709.37
2022-09-23T09:55:28.659Z,99704.82
2022-09-23T09:57:35.212Z,99706.62
2022-09-23T09:58:34.324Z,99704.52
2022-09-23T09:59:32.428Z,99706.52
2022-09-23T10:00:35.225Z,99703.02
2022-09-23T10:01:34.102Z,99699.86
2022-09-23T10:02:36.802Z,99702.97
2022-09-23T10:04:35.588Z,99697.67
2022-09-23T10:06:39.030Z,99700.92
2022-09-23T10:07:39.020Z,99699.77
2022-09-23T10:08:39.180Z,99697.3
2022-09-23T10:09:39.705Z,99695.53
2022-09-23T10:10:39.236Z,99696.44
2022-09-23T10:11:39.880Z,99695.03
2022-09-23T10:12:45.871Z,99694.75
2022-09-23T10:14:42.931Z,99690.05
2022-09-23T10:15:45.121Z,99689.73
2022-09-23T10:16:42.569Z,99700
2022-09-23T10:17:42.530Z,99689.8
2022-09-23T10:19:48.073Z,99693.03
2022-09-23T10:20:46.333Z,99691.48
2022-09-23T10:21:50.709Z,99693.45
2022-09-23T10:22:46.942Z,99692.02
2022-09-23T10:23:48.510Z,99696.56
2022-09-23T10:24:48.439Z,99694.05
2022-09-23T10:27:49.866Z,99685.86
2022-09-23T10:28:53.766Z,99687.14
2022-09-23T10:29:50.796Z,99681.99
2022-09-23T10:32:59.262Z,99678.84
2022-09-23T10:34:03.527Z,99679.86
2022-09-23T10:36:01.206Z,99678.25
2022-09-23T10:37:11.944Z,99673.35
2022-09-23T10:38:03.623Z,99677.52
2022-09-23T10:39:04.896Z,99674.52
2022-09-23T10:40:17.899Z,99672.79
2022-09-23T10:41:05.347Z,99677.19
2022-09-23T10:42:18.696Z,99669.74
2022-09-23T10:43:13.782Z,99671.09
2022-09-23T10:44:09.556Z,99673.7
2022-09-23T10:46:13.258Z,99671.73
2022-09-23T10:59:50.956Z,99664.86
2022-09-23T11:15:32.394Z,99656.89
2022-09-23T11:20:41.845Z,99659.56
2022-09-23T11:23:54.588Z,99660.19
2022-09-23T11:35:18.063Z,99652.99
2022-09-23T11:36:24.662Z,99652.38
2022-09-23T11:37:20.621Z,99654.14
2022-09-23T11:38:21.011Z,99655.42
2022-09-23T11:39:23.155Z,99650.08
2022-09-23T11:40:23.727Z,99650.25
2022-09-23T11:42:27.191Z,99657.79
2022-09-23T11:43:26.255Z,99657.94
2022-09-23T11:44:33.712Z,99657.77
2022-09-23T11:45:27.876Z,99658.09
2022-09-23T11:47:35.236Z,99658.3
2022-09-23T11:48:37.746Z,99660.8
2022-09-23T11:52:51.518Z,99657.73
2022-09-23T11:53:51.731Z,99655.36
2022-09-23T11:54:55.687Z,99657.21
2022-09-23T11:55:57.358Z,99654.98
2022-09-23T11:56:53.773Z,99654.26
2022-09-23T11:58:05.116Z,99653.27
2022-09-23T11:59:00.882Z,99652.2
2022-09-23T12:00:01.697Z,99650.37
2022-09-23T12:01:01.553Z,99651.53
2022-09-23T12:02:16.380Z,99651.77
2022-09-23T12:04:19.723Z,99653.88
2022-09-23T12:05:12.400Z,99651.14
2022-09-23T12:06:21.569Z,99650.88
2022-09-23T12:07:16.502Z,99648.33
2022-09-23T12:10:19.658Z,99649.83
2022-09-23T12:26:08.114Z,99647.47
2022-09-23T12:27:08.323Z,99647.52
2022-09-23T12:28:10.231Z,99647.23
2022-09-23T12:29:11.544Z,99647.61
2022-09-23T12:31:11.728Z,99648.55
2022-09-23T12:35:25.273Z,99650.38
2022-09-23T12:36:35.438Z,99650.88
2022-09-23T12:37:38.327Z,99650.16
2022-09-23T12:38:37.923Z,99648.31
2022-09-23T12:39:35.845Z,99650.59
2022-09-23T12:40:36.635Z,99649.02
2022-09-23T12:41:39.167Z,99647.31
2022-09-23T12:42:40.519Z,99650.09
2022-09-23T12:43:49.817Z,99646.23
2022-09-23T12:44:42.959Z,99641.27
2022-09-23T12:45:42.071Z,99644.15
2022-09-23T12:46:45.340Z,99642.2
2022-09-23T12:47:42.353Z,99646.84
2022-09-23T12:49:45.347Z,99641.33
2022-09-23T12:50:53.741Z,99645.58
2022-09-23T12:52:46.769Z,99643.62
2022-09-23T12:54:51.375Z,99640.91
2022-09-23T12:55:50.443Z,99643.36
2022-09-23T12:57:54.268Z,99640.84
2022-09-23T12:58:58.274Z,99642.84
2022-09-23T12:59:56.086Z,99642.22
2022-09-23T13:03:00.090Z,99638.42
2022-09-23T13:03:59.511Z,99638.22
2022-09-23T13:06:01.226Z,99638.74
2022-09-23T13:07:07.999Z,99641.34
2022-09-23T13:08:11.879Z,99639.75
2022-09-23T13:09:14.151Z,99643.65
2022-09-23T13:13:22.580Z,99643.78
2022-09-23T13:14:26.706Z,99642.02
2022-09-23T13:16:30.344Z,99639.06
2022-09-23T13:17:35.878Z,99638.82
2022-09-23T13:23:36.481Z,99640.45
2022-09-23T13:25:42.038Z,99634.48
2022-09-23T13:26:44.773Z,99633.25
2022-09-23T13:27:42.966Z,99636.34
2022-09-23T13:30:47.671Z,99631.95
2022-09-23T13:31:47.279Z,99631.52
2022-09-23T13:33:52.345Z,99633.23
2022-09-23T13:35:55.592Z,99631.7
2022-09-23T13:36:52.678Z,99633.09
2022-09-23T13:37:52.447Z,99630.55
2022-09-23T13:38:52.475Z,99634.2
2022-09-23T13:39:52.500Z,99633.58
2022-09-23T13:40:58.700Z,99631.77
2022-09-23T13:41:58.791Z,99633.91
2022-09-23T13:43:00.719Z,99632.91
2022-09-23T13:43:58.336Z,99634.92
2022-09-23T13:44:57.816Z,99635.64
2022-09-23T13:45:58.621Z,99636.23
2022-09-23T13:46:59.395Z,99637.09
2022-09-23T13:48:02.353Z,99639.6
2022-09-23T13:48:59.158Z,99635
2022-09-23T13:49:59.093Z,99638.47
2022-09-23T13:51:09.128Z,99634.95
2022-09-23T13:52:01.433Z,99635.23
2022-09-23T13:53:02.370Z,99635.3
2022-09-23T13:54:02.238Z,99636.14
2022-09-23T13:55:01.023Z,99636.53
2022-09-23T13:56:11.498Z,99635.73
2022-09-23T13:57:03.422Z,99630.34
2022-09-23T13:58:04.664Z,99630.74
2022-09-23T14:00:18.395Z,99631.16
2022-09-23T14:01:20.668Z,99632.14
2022-09-23T14:02:13.935Z,99631.62
2022-09-23T14:03:24.022Z,99628.02
2022-09-23T14:04:25.396Z,99628.91
2022-09-23T14:05:21.309Z,99622.56
2022-09-23T14:06:18.059Z,99624.8
2022-09-23T14:07:18.852Z,99624.41
2022-09-23T14:08:18.832Z,99621.09
2022-09-23T14:09:18.069Z,99624.95
2022-09-23T14:10:20.233Z,99624.25
2022-09-23T14:11:22.490Z,99625.77
2022-09-23T14:12:19.400Z,99625.52
2022-09-23T14:13:25.912Z,99623.7
2022-09-23T14:14:23.300Z,99622.59
2022-09-23T14:15:23.010Z,99619.53
2022-09-23T14:16:24.831Z,99620
2022-09-23T14:17:23.001Z,99624.02
2022-09-23T14:19:25.182Z,99615.63
2022-09-23T14:20:24.194Z,99613.98
2022-09-23T14:22:29.401Z,99618.38
2022-09-23T14:23:28.589Z,99616.3
2022-09-23T14:25:29.806Z,99614.77
2022-09-23T14:26:29.735Z,99611.77
2022-09-23T14:27:30.872Z,99613.97
2022-09-23T14:28:29.604Z,99614.55
2022-09-23T14:29:34.193Z,99615.92
2022-09-23T14:30:30.745Z,99614.37
2022-09-23T14:31:30.742Z,99610.33
2022-09-23T14:32:30.991Z,99615.59
2022-09-23T14:33:32.651Z,99610.89
2022-09-23T14:35:45.199Z,99614.33
2022-09-23T14:36:36.910Z,99614.87
2022-09-23T14:37:41.780Z,99612
2022-09-23T14:38:38.498Z,99611.62
2022-09-23T14:39:39.657Z,99610.09
2022-09-23T14:40:49.349Z,99607.8
2022-09-23T14:41:42.289Z,99610.22
2022-09-23T14:42:46.444Z,99613.11
2022-09-23T14:43:47.713Z,99617.27
2022-09-23T14:44:48.492Z,99613.87
2022-09-23T14:45:47.388Z,99611.59
2022-09-23T14:46:53.011Z,99614.23
2022-09-23T14:47:51.989Z,99612.35
2022-09-23T14:48:54.868Z,99612.88
2022-09-23T14:49:51.654Z,99613.84
2022-09-23T14:50:58.979Z,99612.97
2022-09-23T14:51:57.487Z,99611.53
2022-09-23T14:52:55.780Z,99609.13
2022-09-23T14:53:55.735Z,99611.8
2022-09-23T14:54:56.825Z,99609.11
2022-09-23T14:56:07.326Z,99607.89
2022-09-23T14:56:59.862Z,99611.02
2022-09-23T14:58:11.023Z,99610.36
2022-09-23T14:59:02.946Z,99605.88
2022-09-23T15:00:15.939Z,99610.48
2022-09-23T15:03:14.437Z,99607.86
2022-09-23T15:04:16.278Z,99609.25
2022-09-23T15:06:16.605Z,99607.79
2022-09-23T15:07:18.416Z,99609.5
2022-09-23T15:11:24.084Z,99608.36
2022-09-23T15:12:24.920Z,99607.91
2022-09-23T15:13:28.149Z,99611.09
2022-09-23T15:14:37.725Z,99610.02
2022-09-23T15:15:26.189Z,99611.83
2022-09-23T15:16:27.081Z,99609.84